Wetterstation Vordersexau
Wetterdaten: Woche 19.03.18 - 25.03.18 (KW12)
Datum Zeit Temp. A. Feuchte A. Luftdruck Regen Wind Richtung Taupunkt Windchill Windben
19.03.2018 00:00 0,4 C 85 % 1003,1 hPa 0,0 l/m 0,0 km/h SW -1,8 C 0,4 C 0,0 km/h
19.03.2018 01:00 0,4 C 86 % 1003,2 hPa 0,0 l/m 0,0 km/h SW -1,7 C 0,4 C 0,0 km/h
19.03.2018 02:00 0,4 C 86 % 1003,2 hPa 0,0 l/m 0,0 km/h SW -1,7 C 0,4 C 0,0 km/h
19.03.2018 03:00 -0,1 C 86 % 1003,4 hPa 0,0 l/m 0,0 km/h SW -2,2 C -0,1 C 0,0 km/h
19.03.2018 04:00 -0,2 C 86 % 1003,5 hPa 0,0 l/m 0,0 km/h W-SW -2,3 C -0,2 C 0,0 km/h
19.03.2018 05:00 -0,6 C 86 % 1003,5 hPa 0,0 l/m 0,0 km/h W -2,6 C -0,6 C 0,0 km/h
19.03.2018 06:00 -0,8 C 86 % 1003,8 hPa 0,0 l/m 0,0 km/h W -2,8 C -0,8 C 0,0 km/h
19.03.2018 07:00 -0,7 C 86 % 1004,0 hPa 0,0 l/m 0,0 km/h W -2,7 C -0,7 C 0,0 km/h
19.03.2018 08:00 0,4 C 86 % 1004,4 hPa 0,0 l/m 0,0 km/h NW -1,7 C 0,4 C 0,0 km/h
19.03.2018 09:00 0,8 C 85 % 1004,6 hPa 0,0 l/m 0,0 km/h W-SW -1,4 C 0,8 C 0,0 km/h
19.03.2018 10:00 2,1 C 82 % 1005,0 hPa 0,0 l/m 0,0 km/h N-NW -0,6 C 2,1 C 0,0 km/h
19.03.2018 11:00 3,4 C 78 % 1005,0 hPa 0,0 l/m 0,0 km/h N-NW -0,1 C 3,4 C 0,0 km/h
19.03.2018 12:00 4,0 C 76 % 1004,9 hPa 0,0 l/m 0,0 km/h W 0,2 C 4,0 C 0,0 km/h
19.03.2018 13:00 3,3 C 75 % 1004,9 hPa 0,0 l/m 0,0 km/h W -0,7 C 3,3 C 0,0 km/h
19.03.2018 14:00 4,4 C 74 % 1004,8 hPa 0,0 l/m 0,0 km/h SO 0,2 C 4,4 C 0,0 km/h
19.03.2018 15:00 4,1 C 74 % 1004,5 hPa 0,0 l/m 0,0 km/h O-SO -0,1 C 4,1 C 0,0 km/h
19.03.2018 16:00 3,9 C 73 % 1004,6 hPa 0,0 l/m 0,0 km/h NO -0,5 C 3,9 C 0,0 km/h
19.03.2018 17:00 2,8 C 74 % 1005,1 hPa 0,0 l/m 0,0 km/h N-NW -1,4 C 2,8 C 0,0 km/h
19.03.2018 18:00 2,1 C 74 % 1005,6 hPa 0,0 l/m 0,0 km/h N -2,0 C 2,1 C 0,0 km/h
19.03.2018 19:00 1,8 C 75 % 1006,4 hPa 0,0 l/m 0,0 km/h N -2,1 C 1,8 C 0,0 km/h
19.03.2018 20:00 1,6 C 75 % 1006,6 hPa 0,0 l/m 0,0 km/h O-NO -2,3 C 1,6 C 0,0 km/h
19.03.2018 21:00 1,3 C 76 % 1006,9 hPa 0,0 l/m 0,0 km/h NO -2,5 C 1,3 C 0,0 km/h
19.03.2018 22:00 1,0 C 76 % 1006,9 hPa 0,0 l/m 0,0 km/h NO -2,7 C 1,0 C 0,0 km/h
19.03.2018 23:00 0,9 C 76 % 1007,0 hPa 0,0 l/m 0,0 km/h N -2,8 C 0,9 C 0,0 km/h
20.03.2018 00:00 0,7 C 76 % 1007,1 hPa 0,0 l/m 0,0 km/h O-NO -3,0 C 0,7 C 0,0 km/h
20.03.2018 01:00 0,4 C 76 % 1007,4 hPa 0,0 l/m 0,0 km/h O-NO -3,3 C 0,4 C 0,0 km/h
20.03.2018 02:00 0,1 C 72 % 1007,6 hPa 0,0 l/m 11,0 km/h NO -4,3 C -4,1 C 6,1 km/h
20.03.2018 03:00 0,3 C 65 % 1007,7 hPa 0,0 l/m 9,7 km/h N -5,5 C -2,9 C 5,4 km/h
20.03.2018 04:00 0,1 C 66 % 1008,7 hPa 0,0 l/m 7,8 km/h N -5,5 C -1,3 C 4,3 km/h
20.03.2018 05:00 -0,2 C 68 % 1009,2 hPa 0,0 l/m 0,0 km/h N-NO -5,4 C -0,2 C 0,0 km/h
20.03.2018 06:00 -0,6 C 70 % 1009,9 hPa 0,0 l/m 0,0 km/h W -5,4 C -0,6 C 0,0 km/h
20.03.2018 07:00 -0,2 C 72 % 1010,9 hPa 0,0 l/m 0,0 km/h N-NO -4,6 C -0,2 C 0,0 km/h
20.03.2018 08:00 3,9 C 61 % 1011,9 hPa 0,0 l/m 0,0 km/h NO -2,9 C 3,9 C 0,0 km/h
20.03.2018 09:00 3,6 C 58 % 1012,3 hPa 0,0 l/m 0,0 km/h N -3,9 C 3,6 C 0,0 km/h
20.03.2018 10:00 7,8 C 46 % 1012,5 hPa 0,0 l/m 13,6 km/h N -3,1 C 3,1 C 7,6 km/h
20.03.2018 11:00 8,7 C 41 % 1012,7 hPa 0,0 l/m 0,0 km/h N-NW -3,8 C 8,7 C 0,0 km/h
20.03.2018 12:00 8,5 C 46 % 1012,7 hPa 0,0 l/m 5,2 km/h N-NO -2,4 C 8,5 C 2,9 km/h
20.03.2018 13:00 8,4 C 44 % 1012,9 hPa 0,0 l/m 14,9 km/h NO -3,1 C 3,2 C 8,3 km/h
20.03.2018 14:00 5,6 C 48 % 1013,5 hPa 0,0 l/m 9,7 km/h NO -4,5 C 2,9 C 5,4 km/h
20.03.2018 15:00 4,4 C 53 % 1014,8 hPa 0,0 l/m 0,0 km/h NO -4,3 C 4,4 C 0,0 km/h
20.03.2018 16:00 2,9 C 59 % 1015,9 hPa 0,0 l/m 11,0 km/h NO -4,3 C -1,0 C 6,1 km/h
20.03.2018 17:00 4,4 C 57 % 1016,8 hPa 0,0 l/m 0,0 km/h NO -3,4 C 4,4 C 0,0 km/h
20.03.2018 18:00 1,9 C 65 % 1017,8 hPa 0,0 l/m 0,0 km/h N -4,0 C 1,9 C 0,0 km/h
20.03.2018 19:00 1,9 C 70 % 1018,6 hPa 0,0 l/m 0,0 km/h N -3,0 C 1,9 C 0,0 km/h
20.03.2018 20:00 1,4 C 76 % 1019,3 hPa 0,0 l/m 0,0 km/h N-NO -2,4 C 1,4 C 0,0 km/h
20.03.2018 21:00 0,7 C 78 % 1019,7 hPa 0,0 l/m 0,0 km/h N-NO -2,7 C 0,7 C 0,0 km/h
20.03.2018 22:00 0,3 C 81 % 1020,1 hPa 0,0 l/m 0,0 km/h W-SW -2,6 C 0,3 C 0,0 km/h
20.03.2018 23:00 0,2 C 83 % 1020,4 hPa 0,0 l/m 0,0 km/h N-NW -2,3 C 0,2 C 0,0 km/h
21.03.2018 00:00 0,8 C 82 % 1020,7 hPa 0,0 l/m 0,0 km/h N-NO -1,9 C 0,8 C 0,0 km/h
21.03.2018 01:00 1,1 C 79 % 1021,0 hPa 0,0 l/m 0,0 km/h NO -2,1 C 1,1 C 0,0 km/h
21.03.2018 02:00 0,8 C 81 % 1021,0 hPa 0,0 l/m 0,0 km/h NW -2,1 C 0,8 C 0,0 km/h
21.03.2018 03:00 -0,2 C 81 % 1021,3 hPa 0,0 l/m 0,0 km/h N-NW -3,1 C -0,2 C 0,0 km/h
21.03.2018 04:00 -1,1 C 79 % 1021,5 hPa 0,0 l/m 0,0 km/h N-NW -4,3 C -1,1 C 0,0 km/h
21.03.2018 05:00 -2,4 C 79 % 1021,9 hPa 0,0 l/m 0,0 km/h N-NO -5,5 C -2,4 C 0,0 km/h
21.03.2018 06:00 -1,6 C 76 % 1022,6 hPa 0,0 l/m 0,0 km/h NO -5,3 C -1,6 C 0,0 km/h
21.03.2018 07:00 -0,4 C 75 % 1023,2 hPa 0,0 l/m 0,0 km/h NO -4,3 C -0,4 C 0,0 km/h
21.03.2018 08:00 5,8 C 58 % 1023,8 hPa 0,0 l/m 0,0 km/h NO -1,8 C 5,8 C 0,0 km/h
21.03.2018 09:00 5,9 C 51 % 1024,1 hPa 0,0 l/m 14,9 km/h O-NO -3,4 C 0,2 C 8,3 km/h
21.03.2018 10:00 7,8 C 45 % 1024,2 hPa 0,0 l/m 13,6 km/h NO -3,4 C 3,1 C 7,6 km/h
21.03.2018 11:00 9,2 C 40 % 1024,0 hPa 0,0 l/m 9,7 km/h NO -3,7 C 6,9 C 5,4 km/h
21.03.2018 12:00 9,8 C 36 % 1023,9 hPa 0,0 l/m 16,8 km/h NO -4,5 C 4,2 C 9,4 km/h
21.03.2018 13:00 10,6 C 34 % 1023,3 hPa 0,0 l/m 16,2 km/h SO -4,6 C 5,4 C 9,0 km/h
21.03.2018 14:00 13,1 C 28 % 1022,8 hPa 0,0 l/m 24,0 km/h O-NO -5,0 C 6,3 C 13,3 km/h
21.03.2018 15:00 14,5 C 25 % 1023,0 hPa 0,0 l/m 20,1 km/h NO -5,3 C 9,1 C 11,2 km/h
21.03.2018 16:00 11,8 C 31 % 1023,0 hPa 0,0 l/m 0,0 km/h NO -4,8 C 11,8 C 0,0 km/h
21.03.2018 17:00 7,3 C 34 % 1023,4 hPa 0,0 l/m 0,0 km/h N -7,5 C 7,3 C 0,0 km/h
21.03.2018 18:00 3,5 C 42 % 1023,7 hPa 0,0 l/m 0,0 km/h N-NO -8,2 C 3,5 C 0,0 km/h
21.03.2018 19:00 0,1 C 55 % 1024,2 hPa 0,0 l/m 0,0 km/h N-NO -7,8 C 0,1 C 0,0 km/h
21.03.2018 20:00 -1,9 C 62 % 1024,1 hPa 0,0 l/m 0,0 km/h SO -8,2 C -1,9 C 0,0 km/h
21.03.2018 21:00 -2,7 C 69 % 1024,0 hPa 0,0 l/m 0,0 km/h O-SO -7,6 C -2,7 C 0,0 km/h
21.03.2018 22:00 -2,5 C 72 % 1023,7 hPa 0,0 l/m 9,1 km/h NO -6,8 C -5,4 C 5,0 km/h
21.03.2018 23:00 -2,5 C 72 % 1023,5 hPa 0,0 l/m 0,0 km/h NO -6,8 C -2,5 C 0,0 km/h
22.03.2018 00:00 -3,9 C 75 % 1023,0 hPa 0,0 l/m 0,0 km/h NO -7,7 C -3,9 C 0,0 km/h
22.03.2018 01:00 -3,8 C 75 % 1022,6 hPa 0,0 l/m 0,0 km/h NO -7,6 C -3,8 C 0,0 km/h
22.03.2018 02:00 -3,4 C 76 % 1021,8 hPa 0,0 l/m 0,0 km/h O -7,0 C -3,4 C 0,0 km/h
22.03.2018 03:00 -4,2 C 77 % 1021,7 hPa 0,0 l/m 0,0 km/h O-NO -7,6 C -4,2 C 0,0 km/h
22.03.2018 04:00 -3,9 C 78 % 1021,1 hPa 0,0 l/m 0,0 km/h O-NO -7,2 C -3,9 C 0,0 km/h
22.03.2018 05:00 -5,1 C 80 % 1020,8 hPa 0,0 l/m 0,0 km/h O-NO -8,0 C -5,1 C 0,0 km/h
22.03.2018 06:00 -4,7 C 80 % 1020,3 hPa 0,0 l/m 0,0 km/h O-NO -7,6 C -4,7 C 0,0 km/h
22.03.2018 07:00 -2,1 C 78 % 1020,1 hPa 0,0 l/m 0,0 km/h O -5,4 C -2,1 C 0,0 km/h
22.03.2018 08:00 2,9 C 67 % 1020,0 hPa 0,0 l/m 0,0 km/h N-NO -2,6 C 2,9 C 0,0 km/h
22.03.2018 09:00 5,3 C 56 % 1019,8 hPa 0,0 l/m 0,0 km/h W-SW -2,8 C 5,3 C 0,0 km/h
22.03.2018 10:00 6,3 C 53 % 1019,0 hPa 0,0 l/m 11,7 km/h SW -2,6 C 2,4 C 6,5 km/h
22.03.2018 11:00 9,4 C 43 % 1017,9 hPa 0,0 l/m 20,1 km/h W-NW -2,5 C 2,5 C 11,2 km/h
22.03.2018 12:00 9,9 C 41 % 1017,2 hPa 0,0 l/m 0,0 km/h W -2,7 C 9,9 C 0,0 km/h
22.03.2018 13:00 6,1 C 51 % 1016,7 hPa 0,0 l/m 10,4 km/h SW -3,3 C 3,0 C 5,8 km/h
22.03.2018 14:00 5,8 C 56 % 1016,2 hPa 0,0 l/m 9,7 km/h S-SO -2,3 C 3,2 C 5,4 km/h
22.03.2018 15:00 5,9 C 60 % 1014,8 hPa 0,0 l/m 20,7 km/h W-SW -1,3 C -2,3 C 11,5 km/h
22.03.2018 16:00 4,6 C 67 % 1014,4 hPa 0,0 l/m 24,6 km/h W -1,0 C -5,4 C 13,7 km/h
22.03.2018 17:00 3,4 C 77 % 1014,0 hPa 0,0 l/m 32,4 km/h SW -0,2 C -9,3 C 18,0 km/h
22.03.2018 18:00 3,1 C 79 % 1013,6 hPa 0,0 l/m 21,4 km/h SW -0,2 C -6,2 C 11,9 km/h
22.03.2018 19:00 2,4 C 84 % 1013,7 hPa 0,0 l/m 26,6 km/h SW -0,0 C -9,0 C 14,8 km/h
22.03.2018 20:00 2,3 C 85 % 1013,5 hPa 0,0 l/m 21,4 km/h S-SW 0,0 C -7,2 C 11,9 km/h
22.03.2018 21:00 2,2 C 85 % 1013,1 hPa 0,0 l/m 7,1 km/h SW -0,1 C 1,5 C 4,0 km/h
22.03.2018 22:00 2,4 C 85 % 1012,8 hPa 0,5 l/m 3,9 km/h O 0,1 C 2,4 C 2,2 km/h
22.03.2018 23:00 2,2 C 86 % 1012,3 hPa 0,0 l/m 0,0 km/h O 0,1 C 2,2 C 0,0 km/h
23.03.2018 00:00 1,9 C 86 % 1012,0 hPa 0,0 l/m 0,0 km/h O -0,2 C 1,9 C 0,0 km/h
23.03.2018 01:00 2,0 C 86 % 1011,2 hPa 0,5 l/m 0,0 km/h NO -0,1 C 2,0 C 0,0 km/h
23.03.2018 02:00 1,9 C 86 % 1010,6 hPa 0,0 l/m 0,0 km/h NO -0,2 C 1,9 C 0,0 km/h
23.03.2018 03:00 1,9 C 86 % 1010,4 hPa 0,0 l/m 0,0 km/h NO -0,2 C 1,9 C 0,0 km/h
23.03.2018 04:00 1,9 C 86 % 1010,0 hPa 0,0 l/m 0,0 km/h NO -0,2 C 1,9 C 0,0 km/h
23.03.2018 05:00 1,9 C 86 % 1009,5 hPa 0,0 l/m 0,0 km/h NO -0,2 C 1,9 C 0,0 km/h
23.03.2018 06:00 2,1 C 85 % 1009,4 hPa 0,0 l/m 0,0 km/h O-NO -0,2 C 2,1 C 0,0 km/h
23.03.2018 07:00 3,2 C 84 % 1008,9 hPa 0,0 l/m 0,0 km/h S 0,8 C 3,2 C 0,0 km/h
23.03.2018 08:00 5,9 C 84 % 1008,6 hPa 0,0 l/m 6,5 km/h W-SW 3,4 C 5,8 C 3,6 km/h
23.03.2018 09:00 6,1 C 81 % 1008,7 hPa 0,0 l/m 0,0 km/h W 3,1 C 6,1 C 0,0 km/h
23.03.2018 10:00 7,4 C 78 % 1008,2 hPa 0,0 l/m 0,0 km/h N 3,8 C 7,4 C 0,0 km/h
23.03.2018 11:00 9,1 C 74 % 1007,2 hPa 0,0 l/m 0,0 km/h O-NO 4,7 C 9,1 C 0,0 km/h
23.03.2018 12:00 12,5 C 64 % 1006,4 hPa 0,0 l/m 0,0 km/h O-SO 5,9 C 12,5 C 0,0 km/h
23.03.2018 13:00 11,0 C 62 % 1005,2 hPa 0,0 l/m 0,0 km/h O-NO 4,0 C 11,0 C 0,0 km/h
23.03.2018 14:00 9,3 C 65 % 1004,4 hPa 0,0 l/m 0,0 km/h NO 3,1 C 9,3 C 0,0 km/h
23.03.2018 15:00 9,3 C 66 % 1003,6 hPa 0,0 l/m 0,0 km/h NO 3,3 C 9,3 C 0,0 km/h
23.03.2018 16:00 9,4 C 65 % 1003,1 hPa 0,0 l/m 0,0 km/h NO 3,2 C 9,4 C 0,0 km/h
23.03.2018 17:00 9,1 C 65 % 1002,7 hPa 0,0 l/m 0,0 km/h NO 2,9 C 9,1 C 0,0 km/h
23.03.2018 18:00 7,2 C 71 % 1002,4 hPa 0,0 l/m 0,0 km/h NO 2,3 C 7,2 C 0,0 km/h
23.03.2018 19:00 4,7 C 78 % 1002,3 hPa 0,0 l/m 0,0 km/h NO 1,2 C 4,7 C 0,0 km/h
23.03.2018 20:00 2,4 C 81 % 1001,9 hPa 0,0 l/m 0,0 km/h NO -0,5 C 2,4 C 0,0 km/h
23.03.2018 21:00 1,9 C 84 % 1001,2 hPa 0,0 l/m 0,0 km/h O-SO -0,5 C 1,9 C 0,0 km/h
23.03.2018 22:00 1,1 C 85 % 1000,6 hPa 0,0 l/m 0,0 km/h O-SO -1,1 C 1,1 C 0,0 km/h
23.03.2018 23:00 1,1 C 85 % 999,9 hPa 0,0 l/m 1,9 km/h NO -1,1 C 1,1 C 1,1 km/h
24.03.2018 00:00 0,3 C 85 % 999,2 hPa 0,0 l/m 0,0 km/h NO -1,9 C 0,3 C 0,0 km/h
24.03.2018 01:00 0,3 C 86 % 998,4 hPa 0,0 l/m 0,0 km/h O-SO -1,8 C 0,3 C 0,0 km/h
24.03.2018 02:00 0,3 C 86 % 997,5 hPa 0,0 l/m 16,2 km/h N-NO -1,8 C -7,3 C 9,0 km/h
24.03.2018 03:00 -0,4 C 86 % 997,1 hPa 0,0 l/m 0,0 km/h W-NW -2,4 C -0,4 C 0,0 km/h
24.03.2018 04:00 -2,2 C 86 % 996,8 hPa 0,0 l/m 0,0 km/h W-NW -4,2 C -2,2 C 0,0 km/h
24.03.2018 05:00 -3,1 C 86 % 996,8 hPa 0,0 l/m 0,0 km/h W-NW -5,1 C -3,1 C 0,0 km/h
24.03.2018 06:00 -3,4 C 86 % 997,2 hPa 0,0 l/m 0,0 km/h W-SW -5,4 C -3,4 C 0,0 km/h
24.03.2018 07:00 -1,9 C 84 % 997,5 hPa 0,0 l/m 0,0 km/h W-SW -4,2 C -1,9 C 0,0 km/h
24.03.2018 08:00 -0,2 C 81 % 997,9 hPa 0,0 l/m 0,0 km/h NW -3,1 C -0,2 C 0,0 km/h
24.03.2018 09:00 1,9 C 84 % 998,0 hPa 0,0 l/m 0,0 km/h W-NW -0,5 C 1,9 C 0,0 km/h
24.03.2018 10:00 3,6 C 86 % 998,3 hPa 0,0 l/m 0,0 km/h W-NW 1,5 C 3,6 C 0,0 km/h
24.03.2018 11:00 7,4 C 81 % 998,2 hPa 0,0 l/m 0,0 km/h N-NW 4,4 C 7,4 C 0,0 km/h
24.03.2018 12:00 11,3 C 68 % 997,9 hPa 0,0 l/m 0,0 km/h S-SO 5,6 C 11,3 C 0,0 km/h
24.03.2018 13:00 13,4 C 62 % 997,5 hPa 0,0 l/m 0,0 km/h S-SW 6,3 C 13,4 C 0,0 km/h
24.03.2018 14:00 17,6 C 52 % 997,5 hPa 0,0 l/m 6,5 km/h W-SW 7,6 C 17,6 C 3,6 km/h
24.03.2018 15:00 19,8 C 44 % 997,3 hPa 0,0 l/m 0,0 km/h W-SW 7,2 C 19,8 C 0,0 km/h
24.03.2018 16:00 16,8 C 43 % 997,3 hPa 0,0 l/m 0,0 km/h W 4,2 C 16,8 C 0,0 km/h
24.03.2018 17:00 13,6 C 48 % 997,6 hPa 0,0 l/m 0,0 km/h W 2,8 C 13,6 C 0,0 km/h
24.03.2018 18:00 8,6 C 57 % 998,1 hPa 0,0 l/m 0,0 km/h O-SO 0,6 C 8,6 C 0,0 km/h
24.03.2018 19:00 5,5 C 72 % 998,6 hPa 0,0 l/m 0,0 km/h NO 0,9 C 5,5 C 0,0 km/h
24.03.2018 20:00 4,1 C 77 % 999,1 hPa 0,0 l/m 0,0 km/h O-NO 0,4 C 4,1 C 0,0 km/h
24.03.2018 21:00 2,9 C 80 % 999,5 hPa 0,0 l/m 0,0 km/h NO -0,2 C 2,9 C 0,0 km/h
24.03.2018 22:00 1,8 C 83 % 1000,0 hPa 0,0 l/m 0,0 km/h NO -0,8 C 1,8 C 0,0 km/h
24.03.2018 23:00 0,9 C 84 % 1000,0 hPa 0,0 l/m 0,0 km/h O-NO -1,5 C 0,9 C 0,0 km/h
25.03.2018 00:00 1,0 C 85 % 1000,5 hPa 0,0 l/m 0,0 km/h NO -1,2 C 1,0 C 0,0 km/h
25.03.2018 01:00 0,9 C 85 % 1000,7 hPa 0,0 l/m 0,0 km/h NO -1,3 C 0,9 C 0,0 km/h
25.03.2018 02:00 0,9 C 85 % 1000,7 hPa 0,0 l/m 0,0 km/h O-NO -1,3 C 0,9 C 0,0 km/h
25.03.2018 03:00 0,9 C 85 % 1000,8 hPa 0,0 l/m 0,0 km/h NO -1,3 C 0,9 C 0,0 km/h
25.03.2018 04:00 0,1 C 85 % 1000,8 hPa 0,0 l/m 0,0 km/h NO -2,1 C 0,1 C 0,0 km/h
25.03.2018 05:00 -0,9 C 86 % 1001,2 hPa 0,0 l/m 0,0 km/h NO -2,9 C -0,9 C 0,0 km/h
25.03.2018 06:00 -1,5 C 86 % 1001,8 hPa 0,0 l/m 0,0 km/h NO -3,5 C -1,5 C 0,0 km/h
25.03.2018 07:00 -1,5 C 86 % 1001,9 hPa 0,0 l/m 0,0 km/h NO -3,5 C -1,5 C 0,0 km/h
25.03.2018 08:00 1,0 C 85 % 1002,8 hPa 0,0 l/m 0,0 km/h NO -1,2 C 1,0 C 0,0 km/h
25.03.2018 09:00 9,6 C 77 % 1003,4 hPa 0,0 l/m 0,0 km/h SO 5,8 C 9,6 C 0,0 km/h
25.03.2018 10:00 13,0 C 60 % 1003,4 hPa 0,0 l/m 0,0 km/h N 5,4 C 13,0 C 0,0 km/h
25.03.2018 11:00 15,4 C 47 % 1003,6 hPa 0,0 l/m 0,0 km/h N-NW 4,1 C 15,4 C 0,0 km/h
25.03.2018 12:00 17,9 C 43 % 1003,6 hPa 0,0 l/m 0,0 km/h N-NO 5,1 C 17,9 C 0,0 km/h
25.03.2018 13:00 18,1 C 41 % 1003,6 hPa 0,0 l/m 0,0 km/h NW 4,6 C 18,1 C 0,0 km/h
25.03.2018 14:00 18,8 C 38 % 1003,6 hPa 0,0 l/m 0,0 km/h O-SO 4,2 C 18,8 C 0,0 km/h
25.03.2018 15:00 21,9 C 34 % 1003,4 hPa 0,0 l/m 0,0 km/h N 5,3 C 21,9 C 0,0 km/h
25.03.2018 16:00 21,8 C 33 % 1003,3 hPa 0,0 l/m 0,6 km/h NW 4,8 C 21,8 C 0,4 km/h
25.03.2018 17:00 19,2 C 36 % 1003,6 hPa 0,0 l/m 0,0 km/h N-NW 3,8 C 19,2 C 0,0 km/h
25.03.2018 18:00 14,1 C 44 % 1004,0 hPa 0,0 l/m 3,2 km/h N-NO 2,0 C 14,1 C 1,8 km/h
25.03.2018 19:00 10,9 C 52 % 1005,1 hPa 0,0 l/m 0,0 km/h N-NO 1,4 C 10,9 C 0,0 km/h
25.03.2018 20:00 8,1 C 59 % 1005,9 hPa 0,0 l/m 0,0 km/h N-NO 0,6 C 8,1 C 0,0 km/h
25.03.2018 21:00 5,8 C 67 % 1006,5 hPa 0,0 l/m 0,0 km/h N 0,2 C 5,8 C 0,0 km/h
Min-Datum _ 22.03.18 21.03.18 24.03.18 - 19.03.18 - 21.03.18 22.03.18 19.03.18
_ Min-Zeit 05:53 15:53 04:53 - 00:53 - 20:53 17:53 00:53
Minimum _ -5,1 C 25 % 996,8 hPa - 0,0 km/h - -8,2 C -9,3 C 0,0 km/h
Max-Datum _ 25.03.18 19.03.18 21.03.18 22.03.18 22.03.18 - 24.03.18 25.03.18 22.03.18
_ Max-Zeit 15:53 01:53 10:53 22:53 17:53 - 14:53 15:53 17:53
Maximum _ 21,9 C 86 % 1024,2 hPa 0,5 l/m 32,4 km/h
SW
- 7,6 C 21,9 C 18,0 km/h
SW
Durchschnitt _ 4,0 C 70 % 1009,5 hPa #1,0 l/m 2,7 km/h NO -1,5 C 3,1 C 1,5 km/h
www.sexauwetter.de